Bookmark and Share
Track history (hours):
 

CMA CGM Kingfish

Last reported at 2014-Apr-17 07:32 UTC. Time now 2014-Apr-19 02:02 UTC.
Position N 26°55' W 079°48'.

Length 294 m; draft 9.9 m.

Type: Ship (hazmat cat A). MMSI: 636015147.

NotesDate/timePositionNaut miles runAvg speedWind from/ knotsBaromVisibWave heightAir tempDewpointWater temp
2014-Apr-17 07:32N 26°55' W 079°48'2323.0
2014-Apr-17 06:33N 26°33' W 079°52'2322.6
2014-Apr-17 05:33N 26°11' W 079°55'2222.0
2014-Apr-17 04:33N 25°49' W 080°01'8 8.3
2014-Apr-17 03:33N 25°46' W 080°09'0 0.2
2014-Apr-17 02:32N 25°46' W 080°09'0 0.0
2014-Apr-17 01:32N 25°46' W 080°09'0 0.0
2014-Apr-17 00:32N 25°46' W 080°09'0 0.0
2014-Apr-16 23:32N 25°46' W 080°09'0 0.0
2014-Apr-16 22:32N 25°46' W 080°09'0 0.0
2014-Apr-16 21:32N 25°46' W 080°09'0 0.0
2014-Apr-16 20:32N 25°46' W 080°09'0 0.0
2014-Apr-16 19:32N 25°46' W 080°09'0 0.0
2014-Apr-16 18:29N 25°46' W 080°09'0 0.0
2014-Apr-16 17:32N 25°46' W 080°09'0 0.0
2014-Apr-16 16:32N 25°46' W 080°09'3 2.7
2014-Apr-16 15:33N 25°46' W 080°06'5 5.0
2014-Apr-16 14:33N 25°48' W 080°02'2 1.6
2014-Apr-16 13:33N 25°47' W 080°01'1 1.2
2014-Apr-16 12:33N 25°45' W 080°01'5 5.1
2014-Apr-16 11:34N 25°50' W 079°59'10 9.7
2014-Apr-16 10:33N 25°60' W 079°58'2 1.7
2014-Apr-16 09:33N 26°01' W 079°57'2 2.2
2014-Apr-16 08:33N 25°59' W 079°57'3 2.7
2014-Apr-16 07:33N 25°57' W 079°57'3 2.6
2014-Apr-16 06:33N 25°54' W 079°57'2 2.5
2014-Apr-16 05:34N 25°51' W 079°57'3 2.7
2014-Apr-16 04:34N 25°49' W 079°58'3 3.0
2014-Apr-16 03:33N 25°46' W 079°60'3 2.8
2014-Apr-16 02:34N 25°43' W 079°59'3 2.6
2014-Apr-16 01:34N 25°45' W 080°01'1 1.1
2014-Apr-16 00:34N 25°44' W 080°01'1413.7
2014-Apr-15 23:33N 25°30' W 080°00'  
2014-Apr-13 10:33N 29°44' W 088°05'1716.9
2014-Apr-13 09:33N 29°32' W 087°52'1616.3
2014-Apr-13 08:33N 29°19' W 087°40'1716.9
2014-Apr-13 07:33N 29°05' W 087°51'2016.9
2014-Apr-13 06:24N 28°55' W 088°10'1416.8
2014-Apr-13 05:33N 28°48' W 088°25'33814.7
2014-Apr-12 06:33N 29°24' W 094°49'1312.7
2014-Apr-12 05:33N 29°35' W 094°56'4 4.1
2014-Apr-12 04:32N 29°37' W 095°01'0 0.0
2014-Apr-12 03:32N 29°37' W 095°01'0 0.0
2014-Apr-12 02:32N 29°37' W 095°01'0 0.0
2014-Apr-12 01:32N 29°37' W 095°01'0 0.0
2014-Apr-12 00:33N 29°37' W 095°01'0 0.0
2014-Apr-11 23:33N 29°37' W 095°01'0 0.0
2014-Apr-11 22:33N 29°37' W 095°01'0 0.0
2014-Apr-11 21:33N 29°37' W 095°01'0 0.0
2014-Apr-11 20:33N 29°37' W 095°01'0 0.0
2014-Apr-11 19:33N 29°37' W 095°01'0 0.0
2014-Apr-11 18:33N 29°37' W 095°01'0 0.0
2014-Apr-11 17:33N 29°37' W 095°01'0 0.0
2014-Apr-11 16:33N 29°37' W 095°01'1 0.6
2014-Apr-11 15:33N 29°37' W 095°01'5 5.0
2014-Apr-11 14:33N 29°35' W 094°56'1111.1
2014-Apr-11 13:33N 29°25' W 094°50'  

Dump ship's entire track history

sailing weather and tide predictions

CMA CGM Kingfish — A8YW9 — position and weather